createdAt,value
2022-12-24T00:01:04.493Z,12.15
2022-12-24T00:03:33.168Z,9.32
2022-12-24T00:06:05.046Z,9.02
2022-12-24T00:08:34.816Z,10.55
2022-12-24T00:11:03.021Z,10.20
2022-12-24T00:13:31.250Z,8.00
2022-12-24T00:15:59.426Z,8.65
2022-12-24T00:18:27.721Z,10.27
2022-12-24T00:20:55.924Z,10.77
2022-12-24T00:23:24.202Z,13.85
2022-12-24T00:25:53.785Z,9.38
2022-12-24T00:28:21.975Z,10.90
2022-12-24T00:30:50.194Z,9.27
2022-12-24T00:33:24.247Z,9.07
2022-12-24T00:35:54.198Z,10.70
2022-12-24T00:38:22.386Z,8.40
2022-12-24T00:40:50.545Z,6.85
2022-12-24T00:43:20.133Z,6.75
2022-12-24T00:45:48.642Z,7.10
2022-12-24T00:48:16.823Z,7.25
2022-12-24T00:50:45.061Z,7.13
2022-12-24T00:53:13.269Z,6.45
2022-12-24T00:55:41.455Z,8.80
2022-12-24T00:58:09.668Z,6.03
2022-12-24T01:00:39.463Z,7.25
2022-12-24T01:03:07.777Z,10.93
2022-12-24T01:05:35.026Z,10.55
2022-12-24T01:08:03.224Z,5.47
2022-12-24T01:10:31.444Z,8.30
2022-12-24T01:13:02.905Z,6.28
2022-12-24T01:15:31.423Z,10.30
2022-12-24T01:18:00.970Z,9.52
2022-12-24T01:20:31.719Z,6.70
2022-12-24T01:23:00.377Z,12.00
2022-12-24T01:25:28.698Z,8.27
2022-12-24T01:27:56.904Z,6.47
2022-12-24T01:30:25.586Z,8.60
2022-12-24T01:32:53.778Z,16.23
2022-12-24T01:35:23.413Z,7.40
2022-12-24T01:37:51.597Z,11.88
2022-12-24T01:40:37.256Z,10.63
2022-12-24T01:43:24.816Z,8.68
2022-12-24T01:45:54.284Z,7.32
2022-12-24T01:48:34.481Z,8.98
2022-12-24T01:51:10.251Z,8.48
2022-12-24T01:53:40.546Z,9.15
2022-12-24T01:56:09.203Z,7.85
2022-12-24T01:58:39.095Z,6.63
2022-12-24T02:01:07.969Z,7.00
2022-12-24T02:03:36.633Z,7.47
2022-12-24T02:06:07.161Z,8.57
2022-12-24T02:08:40.962Z,10.13
2022-12-24T02:11:14.449Z,9.07
2022-12-24T02:13:45.374Z,11.75
2022-12-24T02:16:24.360Z,8.43
2022-12-24T02:18:58.430Z,12.48
2022-12-24T02:21:56.369Z,8.60
2022-12-24T02:25:03.736Z,9.80
2022-12-24T02:27:45.292Z,7.35
2022-12-24T02:30:18.700Z,10.05
2022-12-24T02:33:13.011Z,15.30
2022-12-24T02:35:49.336Z,12.57
2022-12-24T02:38:24.031Z,9.73
2022-12-24T02:40:56.910Z,8.73
2022-12-24T02:43:28.035Z,10.55
2022-12-24T02:46:01.090Z,12.30
2022-12-24T02:48:30.649Z,14.95
2022-12-24T02:51:02.452Z,10.68
2022-12-24T02:53:31.174Z,7.97
2022-12-24T02:56:18.576Z,7.82
2022-12-24T02:58:59.130Z,9.85
2022-12-24T03:01:40.074Z,8.27
2022-12-24T03:04:16.560Z,9.82
2022-12-24T03:06:51.538Z,7.90
2022-12-24T03:09:26.586Z,9.77
2022-12-24T03:12:02.123Z,8.90
2022-12-24T03:14:31.479Z,10.48
2022-12-24T03:17:03.047Z,11.00
2022-12-24T03:19:32.772Z,9.05
2022-12-24T03:22:03.608Z,11.05
2022-12-24T03:24:32.005Z,13.90
2022-12-24T03:27:01.791Z,10.93
2022-12-24T03:29:30.159Z,7.45
2022-12-24T03:32:04.101Z,13.15
2022-12-24T03:34:32.531Z,11.13
2022-12-24T03:37:00.878Z,10.65
2022-12-24T03:39:29.103Z,11.77
2022-12-24T03:41:57.381Z,16.23
2022-12-24T03:44:25.568Z,8.15
2022-12-24T03:46:53.767Z,11.27
2022-12-24T03:49:23.358Z,12.00
2022-12-24T03:51:51.532Z,8.70
2022-12-24T03:54:19.912Z,8.60
2022-12-24T03:56:48.092Z,11.68
2022-12-24T03:59:16.266Z,12.75
2022-12-24T04:01:44.550Z,7.80
2022-12-24T04:04:12.850Z,10.30
2022-12-24T04:06:42.452Z,14.38
2022-12-24T04:09:10.629Z,7.93
2022-12-24T04:11:38.813Z,10.02
2022-12-24T04:14:06.972Z,10.80
2022-12-24T04:16:35.225Z,7.82
2022-12-24T04:19:03.414Z,11.55
2022-12-24T04:21:31.577Z,11.15
2022-12-24T04:24:01.711Z,13.45
2022-12-24T04:26:30.030Z,6.97
2022-12-24T04:28:58.226Z,12.60
2022-12-24T04:31:26.537Z,11.82
2022-12-24T04:33:54.855Z,11.48
2022-12-24T04:36:23.519Z,11.90
2022-12-24T04:38:51.777Z,11.70
2022-12-24T04:41:24.633Z,13.82
2022-12-24T04:43:53.876Z,12.02
2022-12-24T04:46:24.153Z,9.35
2022-12-24T04:48:54.332Z,10.32
2022-12-24T04:51:22.728Z,15.73
2022-12-24T04:53:51.187Z,10.73
2022-12-24T04:56:23.305Z,8.20
2022-12-24T04:58:52.362Z,12.27
2022-12-24T05:01:22.732Z,7.00
2022-12-24T05:03:51.846Z,9.55
2022-12-24T05:06:21.542Z,12.27
2022-12-24T05:08:50.003Z,12.20
2022-12-24T05:11:19.981Z,14.43
2022-12-24T05:13:48.456Z,11.10
2022-12-24T05:16:18.823Z,10.90
2022-12-24T05:18:47.397Z,11.07
2022-12-24T05:21:18.088Z,10.93
2022-12-24T05:24:15.428Z,9.63
2022-12-24T05:26:47.510Z,9.85
2022-12-24T05:29:15.947Z,8.70
2022-12-24T05:31:45.173Z,11.48
2022-12-24T05:34:13.998Z,9.98
2022-12-24T05:36:42.519Z,9.40
2022-12-24T05:39:15.929Z,10.95
2022-12-24T05:41:46.375Z,8.68
2022-12-24T05:44:16.353Z,12.05
2022-12-24T05:46:45.363Z,11.00
2022-12-24T05:49:13.747Z,10.07
2022-12-24T05:51:42.121Z,11.38
2022-12-24T05:54:10.833Z,11.98
2022-12-24T05:56:38.996Z,10.77
2022-12-24T05:59:08.540Z,12.40
2022-12-24T06:01:36.835Z,11.38
2022-12-24T06:04:05.410Z,10.43
2022-12-24T06:06:33.757Z,13.13
2022-12-24T06:09:01.948Z,12.63
2022-12-24T06:11:30.230Z,12.82
2022-12-24T06:13:58.461Z,14.30
2022-12-24T06:16:28.203Z,8.43
2022-12-24T06:18:56.512Z,11.05
2022-12-24T06:21:24.676Z,8.38
2022-12-24T06:23:53.043Z,9.40
2022-12-24T06:26:23.815Z,9.98
2022-12-24T06:28:53.040Z,7.82
2022-12-24T06:31:23.645Z,15.05
2022-12-24T06:33:53.934Z,9.27
2022-12-24T06:36:24.063Z,6.90
2022-12-24T06:38:53.359Z,4.30
2022-12-24T06:41:21.799Z,3.10
2022-12-24T06:43:52.032Z,4.60
2022-12-24T06:46:21.109Z,5.53
2022-12-24T06:48:49.752Z,3.83
2022-12-24T06:51:20.561Z,4.20
2022-12-24T06:53:50.577Z,4.28
2022-12-24T06:56:19.084Z,4.55
2022-12-24T06:58:47.826Z,2.55
2022-12-24T07:01:18.006Z,5.97
2022-12-24T07:03:46.456Z,4.20
2022-12-24T07:06:20.381Z,7.43
2022-12-24T07:08:48.570Z,4.57
2022-12-24T07:11:17.509Z,4.25
2022-12-24T07:13:45.860Z,7.53
2022-12-24T07:16:14.249Z,4.03
2022-12-24T07:18:42.498Z,3.33
2022-12-24T07:21:10.943Z,5.72
2022-12-24T07:23:40.610Z,4.88
2022-12-24T07:26:09.031Z,5.35
2022-12-24T07:28:37.267Z,7.75
2022-12-24T07:31:05.604Z,5.43
2022-12-24T07:33:33.929Z,3.95
2022-12-24T07:36:04.120Z,4.07
2022-12-24T07:38:33.445Z,6.95
2022-12-24T07:41:03.315Z,5.20
2022-12-24T07:43:33.895Z,6.32
2022-12-24T07:46:02.342Z,4.35
2022-12-24T07:48:32.008Z,7.40
2022-12-24T07:51:01.012Z,6.63
2022-12-24T07:53:31.942Z,5.30
2022-12-24T07:56:00.270Z,9.35
2022-12-24T07:58:29.916Z,10.55
2022-12-24T08:00:59.339Z,7.75
2022-12-24T08:03:28.118Z,9.40
2022-12-24T08:05:56.534Z,9.10
2022-12-24T08:08:24.819Z,8.13
2022-12-24T08:10:53.126Z,7.53
2022-12-24T08:13:21.589Z,8.43
2022-12-24T08:15:51.227Z,7.95
2022-12-24T08:18:19.414Z,9.77
2022-12-24T08:20:48.026Z,9.07
2022-12-24T08:23:16.273Z,7.78
2022-12-24T08:25:45.361Z,14.38
2022-12-24T08:28:14.116Z,16.92
2022-12-24T08:30:42.711Z,14.00
2022-12-24T08:33:13.153Z,9.85
2022-12-24T08:35:41.405Z,9.50
2022-12-24T08:38:09.576Z,14.30
2022-12-24T08:40:37.806Z,10.48
2022-12-24T08:43:05.986Z,19.52
2022-12-24T08:45:39.913Z,23.42
2022-12-24T08:48:08.695Z,18.50
2022-12-24T08:50:41.378Z,11.23
2022-12-24T08:53:10.369Z,14.13
2022-12-24T08:55:39.661Z,14.10
2022-12-24T08:58:07.886Z,9.95
2022-12-24T09:00:36.148Z,10.95
2022-12-24T09:03:04.416Z,9.70
2022-12-24T09:05:32.910Z,8.52
2022-12-24T09:08:03.099Z,11.48
2022-12-24T09:10:31.393Z,9.38
2022-12-24T09:12:59.616Z,17.55
2022-12-24T09:15:27.823Z,11.65
2022-12-24T09:17:56.054Z,8.95
2022-12-24T09:20:24.576Z,12.32
2022-12-24T09:22:52.778Z,12.80
2022-12-24T09:25:22.334Z,11.45
2022-12-24T09:27:50.742Z,16.67
2022-12-24T09:30:19.198Z,12.98
2022-12-24T09:32:47.352Z,19.52
2022-12-24T09:35:15.576Z,14.50
2022-12-24T09:37:43.762Z,12.60
2022-12-24T09:40:26.222Z,15.05
2022-12-24T09:42:55.573Z,17.42
2022-12-24T09:45:29.557Z,14.50
2022-12-24T09:48:02.394Z,15.68
2022-12-24T09:50:40.751Z,8.95
2022-12-24T09:53:17.015Z,10.52
2022-12-24T09:55:49.791Z,13.63
2022-12-24T09:58:24.001Z,14.30
2022-12-24T10:00:53.678Z,13.85
2022-12-24T10:03:21.972Z,13.18
2022-12-24T10:06:02.438Z,13.73
2022-12-24T10:08:35.478Z,12.60
2022-12-24T10:11:13.673Z,11.27
2022-12-24T10:13:55.876Z,9.70
2022-12-24T10:16:31.203Z,11.20
2022-12-24T10:19:06.568Z,13.68
2022-12-24T10:21:43.255Z,11.30
2022-12-24T10:24:18.118Z,10.02
2022-12-24T10:26:52.063Z,11.23
2022-12-24T10:29:24.113Z,13.90
2022-12-24T10:31:57.708Z,7.35
2022-12-24T10:34:31.099Z,15.77
2022-12-24T10:37:00.442Z,9.80
2022-12-24T10:39:28.737Z,11.98
2022-12-24T10:42:00.429Z,10.13
2022-12-24T10:44:31.058Z,8.95
2022-12-24T10:46:59.524Z,16.10
2022-12-24T10:49:34.954Z,12.43
2022-12-24T10:52:06.394Z,6.28
2022-12-24T10:54:39.430Z,12.55
2022-12-24T10:57:26.348Z,9.88
2022-12-24T10:59:56.971Z,8.68
2022-12-24T11:02:30.447Z,11.60
2022-12-24T11:05:00.513Z,12.07
2022-12-24T11:07:30.776Z,8.38
2022-12-24T11:10:00.959Z,10.13
2022-12-24T11:12:33.766Z,12.02
2022-12-24T11:15:04.953Z,10.63
2022-12-24T11:17:33.936Z,8.77
2022-12-24T11:20:03.397Z,8.57
2022-12-24T11:22:32.910Z,8.85
2022-12-24T11:25:05.178Z,8.75
2022-12-24T11:27:41.753Z,10.00
2022-12-24T11:30:23.502Z,5.72
2022-12-24T11:33:08.393Z,13.75
2022-12-24T11:35:42.820Z,9.32
2022-12-24T11:38:13.069Z,15.02
2022-12-24T11:40:42.937Z,11.70
2022-12-24T11:43:18.124Z,9.88
2022-12-24T11:45:51.278Z,11.10
2022-12-24T11:48:28.745Z,9.10
2022-12-24T11:50:58.992Z,7.80
2022-12-24T11:53:34.355Z,10.52
2022-12-24T11:56:10.767Z,9.05
2022-12-24T11:58:47.450Z,11.23
2022-12-24T12:01:21.669Z,7.70
2022-12-24T12:03:52.842Z,10.30
2022-12-24T12:06:38.894Z,15.05
2022-12-24T12:09:12.160Z,13.88
2022-12-24T12:11:43.490Z,9.75
2022-12-24T12:14:20.215Z,9.50
2022-12-24T12:17:03.826Z,12.85
2022-12-24T12:19:38.662Z,12.70
2022-12-24T12:22:12.321Z,10.73
2022-12-24T12:24:47.446Z,9.18
2022-12-24T12:27:23.445Z,7.95
2022-12-24T12:29:58.823Z,11.30
2022-12-24T12:32:32.733Z,14.10
2022-12-24T12:35:06.956Z,11.82
2022-12-24T12:37:39.435Z,8.90
2022-12-24T12:40:15.751Z,9.93
2022-12-24T12:42:49.399Z,9.52
2022-12-24T12:45:34.171Z,13.35
2022-12-24T12:48:20.929Z,10.48
2022-12-24T12:50:54.018Z,8.48
2022-12-24T12:53:40.987Z,12.77
2022-12-24T12:56:21.671Z,11.25
2022-12-24T12:58:54.666Z,14.77
2022-12-24T13:01:37.466Z,9.80
2022-12-24T13:04:55.978Z,11.55
2022-12-24T13:07:47.287Z,7.38
2022-12-24T13:10:37.339Z,8.67
2022-12-24T13:13:29.883Z,12.88
2022-12-24T13:16:24.073Z,13.38
2022-12-24T13:19:05.621Z,14.68
2022-12-24T13:21:34.756Z,10.05
2022-12-24T13:24:08.132Z,10.02
2022-12-24T13:26:36.441Z,11.68
2022-12-24T13:29:32.042Z,11.00
2022-12-24T13:32:33.859Z,9.52
2022-12-24T13:35:05.709Z,12.35
2022-12-24T13:40:18.847Z,12.02
2022-12-24T13:42:52.896Z,9.98
2022-12-24T13:45:43.766Z,12.95
2022-12-24T13:48:23.734Z,11.60
2022-12-24T13:50:55.790Z,12.43
2022-12-24T13:53:30.144Z,10.65
2022-12-24T13:56:04.086Z,14.55
2022-12-24T13:58:32.832Z,7.70
2022-12-24T14:01:04.211Z,16.13
2022-12-24T14:03:35.571Z,11.23
2022-12-24T14:06:09.461Z,13.00
2022-12-24T14:08:41.083Z,10.70
2022-12-24T14:11:14.779Z,9.25
2022-12-24T14:14:12.798Z,9.40
2022-12-24T14:16:48.716Z,11.05
2022-12-24T14:19:21.042Z,10.18
2022-12-24T14:21:57.941Z,14.52
2022-12-24T14:24:28.394Z,12.75
2022-12-24T14:27:01.796Z,13.93
2022-12-24T14:29:33.264Z,12.25
2022-12-24T14:32:04.632Z,12.75
2022-12-24T14:34:33.015Z,10.18
2022-12-24T14:37:05.423Z,16.27
2022-12-24T14:39:36.037Z,13.15
2022-12-24T14:42:18.383Z,8.00
2022-12-24T14:44:57.423Z,12.13
2022-12-24T14:47:35.021Z,9.40
2022-12-24T14:50:24.582Z,6.35
2022-12-24T14:53:07.310Z,11.93
2022-12-24T14:55:42.644Z,14.15
2022-12-24T14:58:25.178Z,8.63
2022-12-24T15:00:55.088Z,14.05
2022-12-24T15:03:25.491Z,10.93
2022-12-24T15:05:56.408Z,8.13
2022-12-24T15:08:30.720Z,12.00
2022-12-24T15:11:02.709Z,11.13
2022-12-24T15:16:06.864Z,7.00
2022-12-24T15:18:37.775Z,8.63
2022-12-24T15:21:08.345Z,8.88
2022-12-24T15:23:45.797Z,9.55
2022-12-24T15:26:21.212Z,11.07
2022-12-24T15:28:49.639Z,8.85
2022-12-24T15:31:20.190Z,12.73
2022-12-24T15:33:49.495Z,11.75
2022-12-24T15:36:24.983Z,9.27
2022-12-24T15:38:57.114Z,11.60
2022-12-24T15:41:27.653Z,8.40
2022-12-24T15:44:00.920Z,8.88
2022-12-24T15:46:30.713Z,6.57
2022-12-24T15:49:01.547Z,13.50
2022-12-24T15:51:33.592Z,14.30
2022-12-24T15:54:13.787Z,9.80
2022-12-24T15:56:44.941Z,12.68
2022-12-24T15:59:22.591Z,9.85
2022-12-24T16:01:51.121Z,10.27
2022-12-24T16:04:25.083Z,7.78
2022-12-24T16:06:57.388Z,11.75
2022-12-24T16:09:34.461Z,15.48
2022-12-24T16:12:03.822Z,12.25
2022-12-24T16:14:33.212Z,7.70
2022-12-24T16:17:01.525Z,10.90
2022-12-24T16:19:39.677Z,11.75
2022-12-24T16:22:22.839Z,15.50
2022-12-24T16:24:55.612Z,28.13
2022-12-24T16:27:24.102Z,24.98
2022-12-24T16:29:52.388Z,22.27
2022-12-24T16:32:31.949Z,16.23
2022-12-24T16:35:00.870Z,14.25
2022-12-24T16:37:29.523Z,13.93
2022-12-24T16:39:59.372Z,12.75
2022-12-24T16:42:45.122Z,8.57
2022-12-24T16:45:13.288Z,11.38
2022-12-24T16:47:43.077Z,12.57
2022-12-24T16:50:16.884Z,10.65
2022-12-24T16:52:45.748Z,12.70
2022-12-24T16:55:16.039Z,9.52
2022-12-24T16:57:45.029Z,11.25
2022-12-24T17:00:18.285Z,10.45
2022-12-24T17:02:47.000Z,10.43
2022-12-24T17:05:16.140Z,8.45
2022-12-24T17:07:44.562Z,7.95
2022-12-24T17:10:15.493Z,8.93
2022-12-24T17:12:44.012Z,9.07
2022-12-24T17:15:12.836Z,9.23
2022-12-24T17:17:41.025Z,7.35
2022-12-24T17:20:10.247Z,16.45
2022-12-24T17:22:38.954Z,13.60
2022-12-24T17:25:08.281Z,11.88
2022-12-24T17:27:37.828Z,9.63
2022-12-24T17:30:07.199Z,6.20
2022-12-24T17:32:37.345Z,10.63
2022-12-24T17:35:05.962Z,5.28
2022-12-24T17:37:34.131Z,8.30
2022-12-24T17:40:02.300Z,9.20
2022-12-24T17:42:30.510Z,13.35
2022-12-24T17:45:00.048Z,10.23
2022-12-24T17:47:28.232Z,9.60
2022-12-24T17:49:56.768Z,12.27
2022-12-24T17:52:24.946Z,11.55
2022-12-24T17:54:54.860Z,9.85
2022-12-24T17:57:23.035Z,14.20
2022-12-24T17:59:51.275Z,13.00
2022-12-24T18:02:21.127Z,18.17
2022-12-24T18:04:49.785Z,15.02
2022-12-24T18:07:18.107Z,12.25
2022-12-24T18:09:46.289Z,6.65
2022-12-24T18:12:14.855Z,7.82
2022-12-24T18:14:43.025Z,5.40
2022-12-24T18:17:11.269Z,10.68
2022-12-24T18:19:40.795Z,10.15
2022-12-24T18:22:08.931Z,6.50
2022-12-24T18:24:37.107Z,10.05
2022-12-24T18:27:05.406Z,8.05
2022-12-24T18:29:33.568Z,8.43
2022-12-24T18:32:01.720Z,9.00
2022-12-24T18:34:29.878Z,7.20
2022-12-24T18:36:59.430Z,10.48
2022-12-24T18:39:27.672Z,9.88
2022-12-24T18:41:55.837Z,7.45
2022-12-24T18:44:25.707Z,6.13
2022-12-24T18:46:54.152Z,7.72
2022-12-24T18:49:22.416Z,7.97
2022-12-24T18:51:50.553Z,9.05
2022-12-24T18:54:20.096Z,6.25
2022-12-24T18:56:50.700Z,8.73
2022-12-24T18:59:19.131Z,8.02
2022-12-24T19:01:47.484Z,8.68
2022-12-24T19:04:15.861Z,8.07
2022-12-24T19:06:50.753Z,9.57
2022-12-24T19:09:22.466Z,10.15
2022-12-24T19:11:50.835Z,7.75
2022-12-24T19:14:20.193Z,11.88
2022-12-24T19:16:48.428Z,6.57
2022-12-24T19:19:18.760Z,8.40
2022-12-24T19:21:46.929Z,9.40
2022-12-24T19:24:15.433Z,7.32
2022-12-24T19:26:45.056Z,5.47
2022-12-24T19:29:13.278Z,5.15
2022-12-24T19:31:44.260Z,6.22
2022-12-24T19:34:12.567Z,4.53
2022-12-24T19:36:40.832Z,5.13
2022-12-24T19:39:09.123Z,7.65
2022-12-24T19:41:37.297Z,9.65
2022-12-24T19:44:07.002Z,13.90
2022-12-24T19:46:36.812Z,13.15
2022-12-24T19:49:07.759Z,13.40
2022-12-24T19:51:36.469Z,9.82
2022-12-24T19:54:06.306Z,11.40
2022-12-24T19:56:34.793Z,11.50
2022-12-24T19:59:04.294Z,11.18
2022-12-24T20:01:36.144Z,12.27
2022-12-24T20:06:35.714Z,31.08
2022-12-24T20:09:06.790Z,15.45
2022-12-24T20:11:36.328Z,13.40
2022-12-24T20:14:06.054Z,14.75
2022-12-24T20:16:36.608Z,11.82
2022-12-24T20:19:07.450Z,17.73
2022-12-24T20:21:37.964Z,28.25
2022-12-24T20:24:06.667Z,28.05
2022-12-24T20:26:35.570Z,32.92
2022-12-24T20:29:05.404Z,28.35
2022-12-24T20:31:36.070Z,33.55
2022-12-24T20:34:07.428Z,16.40
2022-12-24T20:36:37.176Z,21.52
2022-12-24T20:39:06.169Z,16.92
2022-12-24T20:41:34.738Z,15.65
2022-12-24T20:44:04.581Z,15.95
2022-12-24T20:46:35.526Z,14.50
2022-12-24T20:49:03.898Z,15.18
2022-12-24T20:51:32.180Z,21.20
2022-12-24T20:54:01.541Z,27.33
2022-12-24T20:56:30.847Z,26.27
2022-12-24T20:59:01.017Z,17.10
2022-12-24T21:01:29.863Z,22.00
2022-12-24T21:04:04.615Z,28.10
2022-12-24T21:06:33.641Z,28.63
2022-12-24T21:09:02.749Z,31.58
2022-12-24T21:11:48.417Z,37.20
2022-12-24T21:14:17.456Z,35.55
2022-12-24T21:16:46.468Z,32.30
2022-12-24T21:19:18.539Z,32.38
2022-12-24T21:24:15.767Z,31.75
2022-12-24T21:26:43.925Z,32.28
2022-12-24T21:29:12.699Z,23.52
2022-12-24T21:31:40.868Z,27.17
2022-12-24T21:34:09.314Z,21.73
2022-12-24T21:36:38.869Z,24.45
2022-12-24T21:39:07.009Z,21.27
2022-12-24T21:41:35.223Z,28.13
2022-12-24T21:44:03.406Z,24.90
2022-12-24T21:46:31.758Z,34.53
2022-12-24T21:49:17.363Z,38.97
2022-12-24T21:51:48.952Z,32.42
2022-12-24T21:54:30.741Z,27.08
2022-12-24T21:57:18.771Z,34.97
2022-12-24T21:59:47.754Z,42.92
2022-12-24T22:02:17.265Z,29.63
2022-12-24T22:04:46.106Z,28.85
2022-12-24T22:07:40.237Z,34.67
2022-12-24T22:10:29.226Z,29.05
2022-12-24T22:12:59.716Z,19.58
2022-12-24T22:15:28.323Z,20.35
2022-12-24T22:17:56.594Z,27.63
2022-12-24T22:20:24.920Z,19.55
2022-12-24T22:22:54.458Z,22.10
2022-12-24T22:25:22.603Z,19.60
2022-12-24T22:27:50.949Z,21.40
2022-12-24T22:30:19.269Z,19.75
2022-12-24T22:32:47.504Z,29.40
2022-12-24T22:35:15.790Z,24.48
2022-12-24T22:37:43.952Z,24.75
2022-12-24T22:40:14.617Z,25.95
2022-12-24T22:42:42.804Z,26.38
2022-12-24T22:45:15.767Z,22.25
2022-12-24T22:47:46.708Z,25.90
2022-12-24T22:50:14.883Z,31.80
2022-12-24T22:52:43.282Z,20.27
2022-12-24T22:55:11.638Z,20.70
2022-12-24T22:57:41.166Z,18.58
2022-12-24T23:00:14.211Z,23.10
2022-12-24T23:02:42.641Z,22.25
2022-12-24T23:05:14.828Z,15.55
2022-12-24T23:07:43.149Z,18.92
2022-12-24T23:10:11.569Z,22.40
2022-12-24T23:12:58.670Z,16.65
2022-12-24T23:15:26.879Z,15.23
2022-12-24T23:17:55.070Z,21.65
2022-12-24T23:20:23.240Z,17.70
2022-12-24T23:22:51.399Z,18.75
2022-12-24T23:25:20.505Z,20.30
2022-12-24T23:27:50.238Z,18.73
2022-12-24T23:30:18.487Z,19.63
2022-12-24T23:32:46.664Z,15.65
2022-12-24T23:35:14.810Z,17.27
2022-12-24T23:37:42.937Z,17.98
2022-12-24T23:40:11.977Z,22.35
2022-12-24T23:42:40.162Z,17.83
2022-12-24T23:45:10.708Z,16.15
2022-12-24T23:47:38.943Z,22.77
2022-12-24T23:50:08.526Z,20.55
2022-12-24T23:52:36.685Z,21.75
2022-12-24T23:55:06.293Z,20.45
2022-12-24T23:57:34.465Z,28.80
